Time;durP1;ratioP1;P1;durP2;ratioP2;P2;SDS_P1;SDS_P2;PMS_P1;PMS_P2;Temp;Humidity;BMP_temperature;BMP_pressure;BME280_temperature;BME280_humidity;BME280_pressure;Samples;Min_cycle;Max_cycle;Signal;HPM_P1;HPM_P2
2022/06/01 00:00:10;;;;;;;;;;;;;;;;;;343196;28;1053;-75
2022/06/01 00:00:20;;;;;;;;;;;;;;;;;;343268;28;977;-75
2022/06/01 00:00:31;;;;;;;;;;;;;;;;;;343248;28;792;-75
2022/06/01 00:00:42;;;;;;;;;;;;;;;;;;343291;28;831;-75
2022/06/01 00:00:52;;;;;;;;;;;;;;;;;;343333;28;823;-75
2022/06/01 00:01:03;;;;;;;;;;;;;;;;;;343255;28;854;-75
2022/06/01 00:01:13;;;;;;;;;;;;;;;;;;343318;28;791;-75
2022/06/01 00:01:23;;;;;;;;;;;;;;;;;;343273;28;865;-75
2022/06/01 00:01:34;;;;;;;;;;;;;;;;;;343340;28;827;-75
2022/06/01 00:01:45;;;;;;;;;;;;;;;;;;343301;28;831;-75
2022/06/01 00:01:56;;;;;;;;;;;;;;;;;;343171;28;1005;-75
2022/06/01 00:02:08;;;;;;;;;;;;;;;;;;343301;28;929;-75
2022/06/01 00:02:18;;;;;;;;;;;;;;;;;;343237;28;938;-75
2022/06/01 00:02:29;;;;;;;;;;;;;;;;;;343296;28;929;-75
2022/06/01 00:02:39;;;;;;;;;;;;;;;;;;343312;28;937;-75
2022/06/01 00:02:49;;;;;;;;;;;;;;;;;;343252;28;994;-75
2022/06/01 00:02:59;;;;;;;;;;;;;;;;;;343250;28;894;-75
2022/06/01 00:03:10;;;;;;;;;;;;;;;;;;343262;28;788;-75
2022/06/01 00:03:21;;;;;;;;;;;;;;;;;;343315;28;862;-75
2022/06/01 00:03:32;;;;;;;;;;;;;;;;;;343268;28;993;-75
2022/06/01 00:03:43;;;;;;;;;;;;;;;;;;343171;28;1008;-75
2022/06/01 00:03:53;;;;;;;;;;;;;;;;;;343318;28;791;-75
2022/06/01 00:04:03;;;;;;;;;;;;;;;;;;343115;28;958;-75
2022/06/01 00:04:13;;;;;;;;;;;;;;;;;;343299;28;778;-75
2022/06/01 00:04:24;;;;;;;;;;;;;;;;;;343150;28;1014;-75
2022/06/01 00:04:34;;;;;;;;;;;;;;;;;;343270;28;1113;-75
2022/06/01 00:04:44;;;;;;;;;;;;;;;;;;343283;28;1979;-75
2022/06/01 00:04:55;;;;;;;;;;;;;;;;;;343113;28;1377;-75
2022/06/01 00:05:05;;;;;;;;;;;;;;;;;;343316;28;803;-75
2022/06/01 00:05:16;;;;;;;;;;;;;;;;;;343293;28;922;-75
2022/06/01 00:05:26;;;;;;;;;;;;;;;;;;343354;28;795;-75
2022/06/01 00:05:37;;;;;;;;;;;;;;;;;;343284;28;862;-75
2022/06/01 00:05:47;;;;;;;;;;;;;;;;;;343238;28;921;-75
2022/06/01 00:05:57;;;;;;;;;;;;;;;;;;343325;28;787;-75
2022/06/01 00:06:08;;;;;;;;;;;;;;;;;;343177;28;1048;-75
2022/06/01 00:06:18;;;;;;;;;;;;;;;;;;343265;28;1004;-75
2022/06/01 00:06:29;;;;;;;;;;;;;;;;;;343283;28;985;-75
2022/06/01 00:06:39;;;;;;;;;;;;;;;;;;343185;28;1023;-75
2022/06/01 00:06:49;;;;;;;;;;;;;;;;;;343310;28;977;-75
2022/06/01 00:06:59;;;;;;;;;;;;;;;;;;343307;28;843;-75
2022/06/01 00:07:09;;;;;;;;;;;;;;;;;;343270;28;902;-75
2022/06/01 00:07:20;;;;;;;;;;;;;;;;;;343197;28;1417;-75
2022/06/01 00:07:30;;;;;;;;;;;;;;;;;;340666;29;1585;-75
2022/06/01 00:07:40;;;;;;;;;;;;;;;;;;342008;28;1642;-75
2022/06/01 00:07:50;;;;;;;;;;;;;;;;;;343272;28;913;-75
2022/06/01 00:08:00;;;;;;;;;;;;;;;;;;343289;28;1164;-75
2022/06/01 00:08:11;;;;;;;;;;;;;;;;;;343184;28;922;-75
2022/06/01 00:08:21;;;;;;;;;;;;;;;;;;343096;28;874;-75
2022/06/01 00:08:32;;;;;;;;;;;;;;;;;;343297;28;950;-75
2022/06/01 00:08:42;;;;;;;;;;;;;;;;;;343241;28;906;-75
2022/06/01 00:08:52;;;;;;;;;;;;;;;;;;343236;28;922;-74
2022/06/01 00:09:03;;;;;;;;;;;;;;;;;;343137;28;1171;-74
2022/06/01 00:09:13;;;;;;;;;;;;;;;;;;343219;28;934;-75
2022/06/01 00:09:23;;;;;;;;;;;;;;;;;;343277;28;977;-75
2022/06/01 00:09:33;;;;;;;;;;;;;;;;;;343293;28;836;-75
2022/06/01 00:09:44;;;;;;;;;;;;;;;;;;343275;28;918;-75
2022/06/01 00:09:55;;;;;;;;;;;;;;;;;;343270;28;1005;-75
2022/06/01 00:10:06;;;;;;;;;;;;;;;;;;343241;28;842;-75
2022/06/01 00:10:16;;;;;;;;;;;;;;;;;;343164;28;943;-75
2022/06/01 00:10:27;;;;;;;;;;;;;;;;;;343237;28;910;-75
2022/06/01 00:10:38;;;;;;;;;;;;;;;;;;343272;28;787;-75
2022/06/01 00:10:49;;;;;;;;;;;;;;;;;;343270;28;826;-75
2022/06/01 00:10:59;;;;;;;;;;;;;;;;;;343256;28;925;-75
2022/06/01 00:11:10;;;;;;;;;;;;;;;;;;343241;28;1104;-75
2022/06/01 00:11:20;;;;;;;;;;;;;;;;;;343268;28;970;-75
2022/06/01 00:11:31;;;;;;;;;;;;;;;;;;343270;28;985;-75
2022/06/01 00:11:41;;;;;;;;;;;;;;;;;;343270;28;938;-75
2022/06/01 00:11:51;;;;;;;;;;;;;;;;;;343210;28;973;-74
2022/06/01 00:12:02;;;;;;;;;;;;;;;;;;343260;28;902;-75
2022/06/01 00:12:12;;;;;;;;;;;;;;;;;;342066;28;1432;-75
2022/06/01 00:12:22;;;;;;;;;;;;;;;;;;343214;28;807;-75
2022/06/01 00:12:34;;;;;;;;;;;;;;;;;;343299;28;846;-75
2022/06/01 00:12:45;;;;;;;;;;;;;;;;;;343242;28;930;-75
2022/06/01 00:12:55;;;;;;;;;;;;;;;;;;343278;28;980;-75
2022/06/01 00:13:06;;;;;;;;;;;;;;;;;;343326;28;930;-75
2022/06/01 00:13:17;;;;;;;;;;;;;;;;;;343200;28;977;-75
2022/06/01 00:13:27;;;;;;;;;;;;;;;;;;343286;28;922;-75
2022/06/01 00:13:37;;;;;;;;;;;;;;;;;;343294;28;922;-75
2022/06/01 00:13:47;;;;;;;;;;;;;;;;;;343157;28;922;-75
2022/06/01 00:13:58;;;;;;;;;;;;;;;;;;343097;28;771;-75
2022/06/01 00:14:08;;;;;;;;;;;;;;;;;;343085;28;982;-75
2022/06/01 00:14:18;;;;;;;;;;;;;;;;;;343230;28;981;-75
2022/06/01 00:14:28;;;;;;;;;;;;;;;;;;343240;28;926;-75
2022/06/01 00:14:39;;;;;;;;;;;;;;;;;;343278;28;1044;-75
2022/06/01 00:14:49;;;;;;;;;;;;;;;;;;343178;28;930;-75
2022/06/01 00:14:59;;;;;;;;;;;;;;;;;;343293;28;1021;-75
2022/06/01 00:15:11;;;;;;;;;;;;;;;;;;343313;28;843;-75
2022/06/01 00:15:21;;;;;;;;;;;;;;;;;;343211;28;1060;-75
2022/06/01 00:15:32;;;;;;;;;;;;;;;;;;343302;28;993;-75
2022/06/01 00:15:42;;;;;;;;;;;;;;;;;;343285;28;886;-75
2022/06/01 00:15:54;;;;;;;;;;;;;;;;;;343257;28;918;-75
2022/06/01 00:16:04;;;;;;;;;;;;;;;;;;343261;28;946;-75
2022/06/01 00:16:14;;;;;;;;;;;;;;;;;;343180;28;934;-75
2022/06/01 00:16:24;;;;;;;;;;;;;;;;;;343291;28;989;-75
2022/06/01 00:16:35;;;;;;;;;;;;;;;;;;343205;28;965;-75
2022/06/01 00:16:45;;;;;;;;;;;;;;;;;;343199;28;961;-75
2022/06/01 00:16:57;;;;;;;;;;;;;;;;;;343260;28;879;-75
2022/06/01 00:17:07;;;;;;;;;;;;;;;;;;343264;28;882;-75
2022/06/01 00:17:17;;;;;;;;;;;;;;;;;;343244;28;929;-75
2022/06/01 00:17:27;;;;;;;;;;;;;;;;;;343259;28;902;-75
2022/06/01 00:17:38;;;;;;;;;;;;;;;;;;343261;28;821;-75
2022/06/01 00:17:48;;;;;;;;;;;;;;;;;;343190;28;1009;-75
2022/06/01 00:17:58;;;;;;;;;;;;;;;;;;343295;28;1000;-75
2022/06/01 00:18:09;;;;;;;;;;;;;;;;;;343267;28;937;-75
2022/06/01 00:18:19;;;;;;;;;;;;;;;;;;343232;28;867;-75
2022/06/01 00:18:30;;;;;;;;;;;;;;;;;;343302;28;792;-75
2022/06/01 00:18:40;;;;;;;;;;;;;;;;;;343233;28;846;-75
2022/06/01 00:18:51;;;;;;;;;;;;;;;;;;343204;28;949;-75
2022/06/01 00:19:02;;;;;;;;;;;;;;;;;;343284;28;858;-75
2022/06/01 00:19:12;;;;;;;;;;;;;;;;;;343258;28;938;-75
2022/06/01 00:19:22;;;;;;;;;;;;;;;;;;343227;28;1082;-75
2022/06/01 00:19:33;;;;;;;;;;;;;;;;;;343306;28;851;-75
2022/06/01 00:19:43;;;;;;;;;;;;;;;;;;343324;28;812;-75
2022/06/01 00:19:53;;;;;;;;;;;;;;;;;;343275;28;965;-75
2022/06/01 00:20:04;;;;;;;;;;;;;;;;;;343260;28;985;-75
2022/06/01 00:20:14;;;;;;;;;;;;;;;;;;343273;28;941;-75
2022/06/01 00:20:25;;;;;;;;;;;;;;;;;;341621;28;1441;-75
2022/06/01 00:20:36;;;;;;;;;;;;;;;;;;343296;28;814;-75
2022/06/01 00:20:46;;;;;;;;;;;;;;;;;;343234;28;925;-75
2022/06/01 00:20:56;;;;;;;;;;;;;;;;;;343202;28;925;-75
2022/06/01 00:21:07;;;;;;;;;;;;;;;;;;343213;28;966;-75
2022/06/01 00:21:18;;;;;;;;;;;;;;;;;;343243;28;946;-75
2022/06/01 00:21:28;;;;;;;;;;;;;;;;;;343302;28;941;-75
2022/06/01 00:22:11;;;;;;;;;;;;;;;;;;343254;28;1025;-75
2022/06/01 00:22:12;;;;;;;;;;;;;;;;;;343160;28;918;-75
2022/06/01 00:22:22;;;;;;;;;;;;;;;;;;343188;28;994;-75
2022/06/01 00:22:32;;;;;;;;;;;;;;;;;;343258;28;981;-76
2022/06/01 00:22:44;;;;;;;;;;;;;;;;;;343211;28;996;-75
2022/06/01 00:22:54;;;;;;;;;;;;;;;;;;343223;28;960;-75
2022/06/01 00:23:06;;;;;;;;;;;;;;;;;;343286;28;969;-75
2022/06/01 00:23:17;;;;;;;;;;;;;;;;;;343263;28;863;-75
2022/06/01 00:23:27;;;;;;;;;;;;;;;;;;343225;28;1145;-75
2022/06/01 00:23:37;;;;;;;;;;;;;;;;;;343251;28;937;-75
2022/06/01 00:23:48;;;;;;;;;;;;;;;;;;343253;28;964;-75
2022/06/01 00:23:58;;;;;;;;;;;;;;;;;;343267;28;1012;-75
2022/06/01 00:24:08;;;;;;;;;;;;;;;;;;343309;28;791;-75
2022/06/01 00:24:19;;;;;;;;;;;;;;;;;;343261;28;918;-75
2022/06/01 00:24:29;;;;;;;;;;;;;;;;;;343216;28;930;-75
2022/06/01 00:24:39;;;;;;;;;;;;;;;;;;343228;28;958;-75
2022/06/01 00:24:49;;;;;;;;;;;;;;;;;;343139;28;1910;-76
2022/06/01 00:25:00;;;;;;;;;;;;;;;;;;343216;28;942;-75
2022/06/01 00:25:11;;;;;;;;;;;;;;;;;;343302;28;850;-75
2022/06/01 00:25:22;;;;;;;;;;;;;;;;;;343215;28;843;-75
2022/06/01 00:25:33;;;;;;;;;;;;;;;;;;343253;28;1000;-75
2022/06/01 00:25:43;;;;;;;;;;;;;;;;;;343302;28;993;-75
2022/06/01 00:25:53;;;;;;;;;;;;;;;;;;343296;28;828;-75
2022/06/01 00:26:03;;;;;;;;;;;;;;;;;;343313;28;824;-75
2022/06/01 00:26:14;;;;;;;;;;;;;;;;;;343224;28;869;-75
2022/06/01 00:26:24;;;;;;;;;;;;;;;;;;343245;28;1008;-75
2022/06/01 00:26:34;;;;;;;;;;;;;;;;;;343226;28;966;-75
2022/06/01 00:26:44;;;;;;;;;;;;;;;;;;342515;28;1424;-75
2022/06/01 00:26:54;;;;;;;;;;;;;;;;;;341945;28;1365;-75
2022/06/01 00:27:05;;;;;;;;;;;;;;;;;;343176;28;910;-75
2022/06/01 00:27:17;;;;;;;;;;;;;;;;;;343231;28;978;-75
2022/06/01 00:27:27;;;;;;;;;;;;;;;;;;343171;28;798;-75
2022/06/01 00:27:37;;;;;;;;;;;;;;;;;;343282;28;969;-75
2022/06/01 00:27:48;;;;;;;;;;;;;;;;;;343293;28;874;-75
2022/06/01 00:27:59;;;;;;;;;;;;;;;;;;343185;28;993;-75
2022/06/01 00:28:09;;;;;;;;;;;;;;;;;;343256;28;914;-75
2022/06/01 00:28:19;;;;;;;;;;;;;;;;;;343296;28;915;-75
2022/06/01 00:28:29;;;;;;;;;;;;;;;;;;343215;28;988;-75
2022/06/01 00:28:40;;;;;;;;;;;;;;;;;;343254;28;795;-75
2022/06/01 00:28:50;;;;;;;;;;;;;;;;;;343230;28;930;-75
2022/06/01 00:29:00;;;;;;;;;;;;;;;;;;343239;28;949;-75
2022/06/01 00:29:10;;;;;;;;;;;;;;;;;;343198;28;874;-75
2022/06/01 00:29:20;;;;;;;;;;;;;;;;;;343248;28;973;-76
2022/06/01 00:29:31;;;;;;;;;;;;;;;;;;343297;28;826;-75
2022/06/01 00:29:42;;;;;;;;;;;;;;;;;;343223;28;906;-75
2022/06/01 00:29:52;;;;;;;;;;;;;;;;;;343259;28;981;-75
2022/06/01 00:30:04;;;;;;;;;;;;;;;;;;343267;28;942;-75
2022/06/01 00:30:15;;;;;;;;;;;;;;;;;;343256;28;1008;-75
2022/06/01 00:30:26;;;;;;;;;;;;;;;;;;343226;28;851;-75
2022/06/01 00:30:36;;;;;;;;;;;;;;;;;;343193;28;845;-75
2022/06/01 00:30:47;;;;;;;;;;;;;;;;;;343270;28;969;-75
2022/06/01 00:30:57;;;;;;;;;;;;;;;;;;343251;28;1000;-75
2022/06/01 00:31:07;;;;;;;;;;;;;;;;;;343227;28;914;-75
2022/06/01 00:31:17;;;;;;;;;;;;;;;;;;343194;28;903;-75
2022/06/01 00:31:27;;;;;;;;;;;;;;;;;;343195;28;973;-75
2022/06/01 00:31:38;;;;;;;;;;;;;;;;;;343172;28;962;-75
2022/06/01 00:31:48;;;;;;;;;;;;;;;;;;343262;28;949;-75
2022/06/01 00:31:58;;;;;;;;;;;;;;;;;;343266;28;930;-75
2022/06/01 00:32:11;;;;;;;;;;;;;;;;;;343219;28;910;-75
2022/06/01 00:32:21;;;;;;;;;;;;;;;;;;343271;28;1029;-75
2022/06/01 00:32:31;;;;;;;;;;;;;;;;;;343281;28;847;-75
2022/06/01 00:32:42;;;;;;;;;;;;;;;;;;343289;28;684;-75
2022/06/01 00:32:52;;;;;;;;;;;;;;;;;;343080;28;875;-75
2022/06/01 00:33:02;;;;;;;;;;;;;;;;;;343287;28;909;-75
2022/06/01 00:33:13;;;;;;;;;;;;;;;;;;343228;28;950;-75
2022/06/01 00:33:23;;;;;;;;;;;;;;;;;;343212;28;993;-75
2022/06/01 00:33:34;;;;;;;;;;;;;;;;;;343203;28;850;-75
2022/06/01 00:33:44;;;;;;;;;;;;;;;;;;343271;28;799;-75
2022/06/01 00:33:54;;;;;;;;;;;;;;;;;;343262;28;810;-75
2022/06/01 00:34:04;;;;;;;;;;;;;;;;;;343279;28;1006;-75
2022/06/01 00:34:15;;;;;;;;;;;;;;;;;;343235;28;819;-75
2022/06/01 00:34:25;;;;;;;;;;;;;;;;;;343191;28;1089;-75
2022/06/01 00:34:35;;;;;;;;;;;;;;;;;;343243;28;961;-75
2022/06/01 00:34:45;;;;;;;;;;;;;;;;;;343236;28;709;-75
2022/06/01 00:34:56;;;;;;;;;;;;;;;;;;343212;28;917;-75
2022/06/01 00:35:07;;;;;;;;;;;;;;;;;;343283;28;779;-75
2022/06/01 00:35:19;;;;;;;;;;;;;;;;;;343197;28;961;-75
2022/06/01 00:35:30;;;;;;;;;;;;;;;;;;343205;28;986;-75
2022/06/01 00:35:40;;;;;;;;;;;;;;;;;;343150;28;966;-75
2022/06/01 00:35:50;;;;;;;;;;;;;;;;;;343255;28;839;-75
2022/06/01 00:36:01;;;;;;;;;;;;;;;;;;343303;28;902;-75
2022/06/01 00:36:11;;;;;;;;;;;;;;;;;;342914;28;1463;-76
2022/06/01 00:36:21;;;;;;;;;;;;;;;;;;341859;29;918;-75
2022/06/01 00:36:32;;;;;;;;;;;;;;;;;;341920;29;854;-75
2022/06/01 00:36:42;;;;;;;;;;;;;;;;;;341866;29;1061;-75
2022/06/01 00:36:52;;;;;;;;;;;;;;;;;;341937;29;926;-75
2022/06/01 00:37:03;;;;;;;;;;;;;;;;;;341915;29;859;-75
2022/06/01 00:37:13;;;;;;;;;;;;;;;;;;341792;29;1025;-75
2022/06/01 00:37:23;;;;;;;;;;;;;;;;;;341863;29;977;-75
2022/06/01 00:37:34;;;;;;;;;;;;;;;;;;341963;29;836;-75
2022/06/01 00:37:44;;;;;;;;;;;;;;;;;;341735;29;970;-75
2022/06/01 00:37:54;;;;;;;;;;;;;;;;;;341942;29;848;-75
2022/06/01 00:38:05;;;;;;;;;;;;;;;;;;341890;29;918;-75
2022/06/01 00:38:16;;;;;;;;;;;;;;;;;;341915;29;800;-75
2022/06/01 00:38:26;;;;;;;;;;;;;;;;;;341956;29;880;-75
2022/06/01 00:38:37;;;;;;;;;;;;;;;;;;341909;29;989;-75
2022/06/01 00:38:47;;;;;;;;;;;;;;;;;;341839;29;993;-75
2022/06/01 00:38:57;;;;;;;;;;;;;;;;;;341908;29;884;-75
2022/06/01 00:39:08;;;;;;;;;;;;;;;;;;341922;29;922;-75
2022/06/01 00:39:18;;;;;;;;;;;;;;;;;;341900;29;965;-75
2022/06/01 00:39:28;;;;;;;;;;;;;;;;;;341831;29;982;-75
2022/06/01 00:39:38;;;;;;;;;;;;;;;;;;341926;29;855;-75
2022/06/01 00:39:49;;;;;;;;;;;;;;;;;;341857;29;954;-75
2022/06/01 00:39:59;;;;;;;;;;;;;;;;;;341945;29;870;-75
2022/06/01 00:40:11;;;;;;;;;;;;;;;;;;341909;29;965;-75
2022/06/01 00:40:22;;;;;;;;;;;;;;;;;;341904;29;1002;-75
2022/06/01 00:40:33;;;;;;;;;;;;;;;;;;341895;29;930;-75
2022/06/01 00:40:43;;;;;;;;;;;;;;;;;;341808;29;1302;-75
2022/06/01 00:40:53;;;;;;;;;;;;;;;;;;341906;29;945;-75
2022/06/01 00:41:04;;;;;;;;;;;;;;;;;;341934;29;783;-75
2022/06/01 00:41:14;;;;;;;;;;;;;;;;;;341945;29;1007;-75
2022/06/01 00:41:24;;;;;;;;;;;;;;;;;;341935;29;949;-75
2022/06/01 00:41:35;;;;;;;;;;;;;;;;;;340712;29;1433;-75
2022/06/01 00:41:45;;;;;;;;;;;;;;;;;;342988;28;1005;-75
2022/06/01 00:42:07;;;;;;;;;;;;;;;;;;343220;28;1009;-75
2022/06/01 00:42:20;;;;;;;;;;;;;;;;;;343199;28;903;-75
2022/06/01 00:42:31;;;;;;;;;;;;;;;;;;343082;28;1063;-75
2022/06/01 00:42:43;;;;;;;;;;;;;;;;;;343247;28;839;-75
2022/06/01 00:42:57;;;;;;;;;;;;;;;;;;343169;28;937;-75
2022/06/01 00:43:26;;;;;;;;;;;;;;;;;;343267;28;929;-75
2022/06/01 00:43:39;;;;;;;;;;;;;;;;;;343195;28;867;-75
2022/06/01 00:43:49;;;;;;;;;;;;;;;;;;343171;28;946;-75
2022/06/01 00:43:59;;;;;;;;;;;;;;;;;;343250;28;875;-75
2022/06/01 00:44:10;;;;;;;;;;;;;;;;;;343210;28;946;-75
2022/06/01 00:44:20;;;;;;;;;;;;;;;;;;343205;28;905;-75
2022/06/01 00:44:30;;;;;;;;;;;;;;;;;;343252;28;918;-75
2022/06/01 00:44:41;;;;;;;;;;;;;;;;;;343265;28;830;-75
2022/06/01 00:44:52;;;;;;;;;;;;;;;;;;343110;28;1979;-75
2022/06/01 00:45:02;;;;;;;;;;;;;;;;;;343198;28;941;-75
2022/06/01 00:45:13;;;;;;;;;;;;;;;;;;343227;28;930;-75
2022/06/01 00:45:25;;;;;;;;;;;;;;;;;;343237;28;966;-75
2022/06/01 00:45:35;;;;;;;;;;;;;;;;;;343229;28;933;-75
2022/06/01 00:45:45;;;;;;;;;;;;;;;;;;343163;28;915;-75
2022/06/01 00:45:55;;;;;;;;;;;;;;;;;;343184;28;929;-75
2022/06/01 00:46:06;;;;;;;;;;;;;;;;;;343227;28;930;-75
2022/06/01 00:46:16;;;;;;;;;;;;;;;;;;343244;28;989;-75
2022/06/01 00:46:26;;;;;;;;;;;;;;;;;;343262;28;842;-75
2022/06/01 00:46:37;;;;;;;;;;;;;;;;;;343051;28;1095;-75
2022/06/01 00:46:47;;;;;;;;;;;;;;;;;;343211;28;903;-75
2022/06/01 00:46:57;;;;;;;;;;;;;;;;;;343223;28;989;-75
2022/06/01 00:47:08;;;;;;;;;;;;;;;;;;343233;28;973;-75
2022/06/01 00:47:20;;;;;;;;;;;;;;;;;;343233;28;942;-75
2022/06/01 00:47:30;;;;;;;;;;;;;;;;;;343159;28;918;-75
2022/06/01 00:47:40;;;;;;;;;;;;;;;;;;343247;28;926;-75
2022/06/01 00:47:51;;;;;;;;;;;;;;;;;;343153;28;1166;-75
2022/06/01 00:48:01;;;;;;;;;;;;;;;;;;343116;28;1268;-75
2022/06/01 00:48:13;;;;;;;;;;;;;;;;;;343255;28;780;-75
2022/06/01 00:48:26;;;;;;;;;;;;;;;;;;343177;28;922;-75
2022/06/01 00:48:39;;;;;;;;;;;;;;;;;;343220;28;795;-75
2022/06/01 00:48:52;;;;;;;;;;;;;;;;;;343217;28;803;-75
2022/06/01 00:49:12;;;;;;;;;;;;;;;;;;343189;28;984;-75
2022/06/01 00:49:22;;;;;;;;;;;;;;;;;;343218;28;973;-75
2022/06/01 00:49:33;;;;;;;;;;;;;;;;;;343206;28;993;-75
2022/06/01 00:49:47;;;;;;;;;;;;;;;;;;343259;28;910;-75
2022/06/01 00:50:07;;;;;;;;;;;;;;;;;;343107;28;977;-75
2022/06/01 00:50:17;;;;;;;;;;;;;;;;;;343212;28;1194;-75
2022/06/01 00:50:36;;;;;;;;;;;;;;;;;;341655;28;1418;-75
2022/06/01 00:50:46;;;;;;;;;;;;;;;;;;343256;28;783;-75
2022/06/01 00:50:56;;;;;;;;;;;;;;;;;;343242;28;870;-75
2022/06/01 00:51:08;;;;;;;;;;;;;;;;;;343241;28;926;-75
2022/06/01 00:51:21;;;;;;;;;;;;;;;;;;343249;28;930;-75
2022/06/01 00:51:32;;;;;;;;;;;;;;;;;;343201;28;930;-75
2022/06/01 00:51:42;;;;;;;;;;;;;;;;;;343235;28;958;-75
2022/06/01 00:51:53;;;;;;;;;;;;;;;;;;343253;28;862;-75
2022/06/01 00:52:04;;;;;;;;;;;;;;;;;;343033;28;915;-75
2022/06/01 00:52:15;;;;;;;;;;;;;;;;;;343194;28;915;-75
2022/06/01 00:52:35;;;;;;;;;;;;;;;;;;343232;28;930;-75
2022/06/01 00:52:56;;;;;;;;;;;;;;;;;;343261;28;883;-75
2022/06/01 00:53:20;;;;;;;;;;;;;;;;;;343173;28;937;-75
2022/06/01 00:53:33;;;;;;;;;;;;;;;;;;343179;28;938;-75
2022/06/01 00:53:44;;;;;;;;;;;;;;;;;;343160;28;992;-75
2022/06/01 00:53:56;;;;;;;;;;;;;;;;;;343261;28;815;-75
2022/06/01 00:54:06;;;;;;;;;;;;;;;;;;343149;28;977;-75
2022/06/01 00:54:17;;;;;;;;;;;;;;;;;;343231;28;1012;-75
2022/06/01 00:54:27;;;;;;;;;;;;;;;;;;343177;28;929;-75
2022/06/01 00:54:38;;;;;;;;;;;;;;;;;;343176;28;1009;-75
2022/06/01 00:54:48;;;;;;;;;;;;;;;;;;343223;28;914;-75
2022/06/01 00:54:58;;;;;;;;;;;;;;;;;;343229;28;803;-75
2022/06/01 00:55:12;;;;;;;;;;;;;;;;;;343137;28;982;-75
2022/06/01 00:55:34;;;;;;;;;;;;;;;;;;343223;28;918;-75
2022/06/01 00:55:54;;;;;;;;;;;;;;;;;;343258;28;787;-75
2022/06/01 00:56:06;;;;;;;;;;;;;;;;;;343167;28;788;-75
2022/06/01 00:56:21;;;;;;;;;;;;;;;;;;342146;28;1404;-75
2022/06/01 00:56:35;;;;;;;;;;;;;;;;;;343202;28;918;-75
2022/06/01 00:56:57;;;;;;;;;;;;;;;;;;343100;28;799;-75
2022/06/01 00:57:09;;;;;;;;;;;;;;;;;;343112;28;914;-75
2022/06/01 00:57:19;;;;;;;;;;;;;;;;;;343242;28;851;-75
2022/06/01 00:57:30;;;;;;;;;;;;;;;;;;343245;28;835;-75
2022/06/01 00:57:41;;;;;;;;;;;;;;;;;;343164;28;850;-75
2022/06/01 00:57:55;;;;;;;;;;;;;;;;;;343211;28;922;-75
2022/06/01 00:58:10;;;;;;;;;;;;;;;;;;343147;28;1076;-75
2022/06/01 00:58:23;;;;;;;;;;;;;;;;;;343150;28;934;-75
2022/06/01 00:58:40;;;;;;;;;;;;;;;;;;343207;28;917;-75
2022/06/01 00:58:55;;;;;;;;;;;;;;;;;;343199;28;910;-75
2022/06/01 00:59:09;;;;;;;;;;;;;;;;;;343201;28;867;-75
2022/06/01 00:59:33;;;;;;;;;;;;;;;;;;341866;29;945;-75
2022/06/01 00:59:44;;;;;;;;;;;;;;;;;;341866;29;954;-75
2022/06/01 00:59:55;;;;;;;;;;;;;;;;;;341845;29;926;-75
2022/06/01 01:00:07;;;;;;;;;;;;;;;;;;341881;29;985;-75
2022/06/01 01:00:21;;;;;;;;;;;;;;;;;;343152;28;907;-75
2022/06/01 01:00:33;;;;;;;;;;;;;;;;;;343189;28;827;-75
2022/06/01 01:00:44;;;;;;;;;;;;;;;;;;343218;28;929;-75
2022/06/01 01:00:55;;;;;;;;;;;;;;;;;;343169;28;962;-75
2022/06/01 01:01:08;;;;;;;;;;;;;;;;;;343181;28;1033;-75
2022/06/01 01:01:19;;;;;;;;;;;;;;;;;;341511;28;1444;-74
2022/06/01 01:01:30;;;;;;;;;;;;;;;;;;341875;29;922;-75
2022/06/01 01:01:41;;;;;;;;;;;;;;;;;;341860;29;1070;-75
2022/06/01 01:01:52;;;;;;;;;;;;;;;;;;341877;29;977;-75
2022/06/01 01:02:03;;;;;;;;;;;;;;;;;;341858;29;942;-75
2022/06/01 01:02:14;;;;;;;;;;;;;;;;;;341913;29;783;-75
2022/06/01 01:02:24;;;;;;;;;;;;;;;;;;341856;29;882;-75
2022/06/01 01:02:36;;;;;;;;;;;;;;;;;;341825;29;969;-75
2022/06/01 01:02:47;;;;;;;;;;;;;;;;;;341912;29;977;-75
2022/06/01 01:02:58;;;;;;;;;;;;;;;;;;341894;29;934;-75
2022/06/01 01:03:10;;;;;;;;;;;;;;;;;;341868;29;914;-75
2022/06/01 01:03:21;;;;;;;;;;;;;;;;;;341740;28;1420;-75
2022/06/01 01:03:35;;;;;;;;;;;;;;;;;;343233;28;906;-75
2022/06/01 01:03:47;;;;;;;;;;;;;;;;;;343213;28;871;-75
2022/06/01 01:03:59;;;;;;;;;;;;;;;;;;343239;28;805;-75
2022/06/01 01:04:10;;;;;;;;;;;;;;;;;;343227;28;938;-75
2022/06/01 01:04:21;;;;;;;;;;;;;;;;;;342564;28;1367;-75
2022/06/01 01:04:33;;;;;;;;;;;;;;;;;;343115;28;942;-75
2022/06/01 01:04:44;;;;;;;;;;;;;;;;;;343218;28;934;-75
2022/06/01 01:04:55;;;;;;;;;;;;;;;;;;342957;28;2018;-75
2022/06/01 01:05:07;;;;;;;;;;;;;;;;;;343201;28;887;-75
2022/06/01 01:05:17;;;;;;;;;;;;;;;;;;343185;28;934;-75
2022/06/01 01:05:29;;;;;;;;;;;;;;;;;;343167;28;914;-75
2022/06/01 01:05:43;;;;;;;;;;;;;;;;;;343186;28;874;-75
2022/06/01 01:06:05;;;;;;;;;;;;;;;;;;343201;28;989;-75
2022/06/01 01:06:18;;;;;;;;;;;;;;;;;;343233;28;902;-75
2022/06/01 01:06:33;;;;;;;;;;;;;;;;;;343079;28;1217;-74
2022/06/01 01:06:46;;;;;;;;;;;;;;;;;;343154;28;910;-75
2022/06/01 01:06:59;;;;;;;;;;;;;;;;;;343245;28;840;-75
2022/06/01 01:07:12;;;;;;;;;;;;;;;;;;343226;28;862;-75
2022/06/01 01:07:25;;;;;;;;;;;;;;;;;;343093;28;1029;-75
2022/06/01 01:07:38;;;;;;;;;;;;;;;;;;343204;28;930;-75
2022/06/01 01:07:50;;;;;;;;;;;;;;;;;;343149;28;1296;-75
2022/06/01 01:08:03;;;;;;;;;;;;;;;;;;343169;28;925;-75
2022/06/01 01:08:13;;;;;;;;;;;;;;;;;;343234;28;827;-75
2022/06/01 01:08:24;;;;;;;;;;;;;;;;;;343211;28;808;-75
2022/06/01 01:08:34;;;;;;;;;;;;;;;;;;343181;28;843;-75
2022/06/01 01:08:46;;;;;;;;;;;;;;;;;;343145;28;1075;-75
2022/06/01 01:08:57;;;;;;;;;;;;;;;;;;343211;28;918;-75
2022/06/01 01:09:08;;;;;;;;;;;;;;;;;;343159;28;950;-75
2022/06/01 01:09:18;;;;;;;;;;;;;;;;;;343212;28;858;-75
2022/06/01 01:09:29;;;;;;;;;;;;;;;;;;343247;28;843;-75
2022/06/01 01:09:39;;;;;;;;;;;;;;;;;;343240;28;766;-75
2022/06/01 01:09:49;;;;;;;;;;;;;;;;;;343195;28;926;-75
2022/06/01 01:09:59;;;;;;;;;;;;;;;;;;343210;28;902;-75
2022/06/01 01:10:11;;;;;;;;;;;;;;;;;;343193;28;953;-75
2022/06/01 01:10:21;;;;;;;;;;;;;;;;;;343202;28;946;-75
2022/06/01 01:10:32;;;;;;;;;;;;;;;;;;343166;28;989;-75
2022/06/01 01:10:42;;;;;;;;;;;;;;;;;;343172;28;938;-75
2022/06/01 01:10:53;;;;;;;;;;;;;;;;;;343149;28;982;-75
2022/06/01 01:11:05;;;;;;;;;;;;;;;;;;343228;28;866;-75
2022/06/01 01:11:20;;;;;;;;;;;;;;;;;;343136;28;1010;-75
2022/06/01 01:11:56;;;;;;;;;;;;;;;;;;343230;28;970;-75
2022/06/01 01:12:09;;;;;;;;;;;;;;;;;;341620;29;934;-75
2022/06/01 01:12:19;;;;;;;;;;;;;;;;;;341740;29;929;-75
2022/06/01 01:12:56;;;;;;;;;;;;;;;;;;341635;29;1333;-75
2022/06/01 01:13:04;;;;;;;;;;;;;;;;;;342587;28;1106;-75
2022/06/01 01:13:14;;;;;;;;;;;;;;;;;;343160;28;1068;-75
2022/06/01 01:13:24;;;;;;;;;;;;;;;;;;343169;28;949;-75
2022/06/01 01:13:35;;;;;;;;;;;;;;;;;;343221;28;997;-75
2022/06/01 01:13:46;;;;;;;;;;;;;;;;;;343190;28;1076;-75
2022/06/01 01:13:57;;;;;;;;;;;;;;;;;;343181;28;831;-75
2022/06/01 01:14:07;;;;;;;;;;;;;;;;;;343174;28;910;-75
2022/06/01 01:14:22;;;;;;;;;;;;;;;;;;343199;28;906;-75
2022/06/01 01:14:36;;;;;;;;;;;;;;;;;;343212;28;969;-75
2022/06/01 01:14:47;;;;;;;;;;;;;;;;;;343142;28;930;-75
2022/06/01 01:14:57;;;;;;;;;;;;;;;;;;343165;28;929;-75
2022/06/01 01:15:08;;;;;;;;;;;;;;;;;;343210;28;1112;-75
2022/06/01 01:15:19;;;;;;;;;;;;;;;;;;343175;28;986;-75
2022/06/01 01:15:32;;;;;;;;;;;;;;;;;;343135;28;910;-75
2022/06/01 01:15:58;;;;;;;;;;;;;;;;;;343203;28;862;-75
2022/06/01 01:16:10;;;;;;;;;;;;;;;;;;343217;28;1001;-75
2022/06/01 01:16:21;;;;;;;;;;;;;;;;;;341068;28;1457;-75
2022/06/01 01:16:34;;;;;;;;;;;;;;;;;;342054;28;1567;-74
2022/06/01 01:16:44;;;;;;;;;;;;;;;;;;343174;28;965;-75
2022/06/01 01:16:55;;;;;;;;;;;;;;;;;;343163;28;977;-75
2022/06/01 01:17:05;;;;;;;;;;;;;;;;;;343161;28;1040;-75
2022/06/01 01:17:15;;;;;;;;;;;;;;;;;;343177;28;926;-75
2022/06/01 01:17:26;;;;;;;;;;;;;;;;;;343233;28;842;-75
2022/06/01 01:17:37;;;;;;;;;;;;;;;;;;343190;28;925;-75
2022/06/01 01:17:48;;;;;;;;;;;;;;;;;;343203;28;938;-75
2022/06/01 01:18:00;;;;;;;;;;;;;;;;;;343199;28;1036;-75
2022/06/01 01:18:11;;;;;;;;;;;;;;;;;;343175;28;1027;-75
2022/06/01 01:18:26;;;;;;;;;;;;;;;;;;343190;28;886;-75
2022/06/01 01:18:40;;;;;;;;;;;;;;;;;;343193;28;949;-75
2022/06/01 01:18:51;;;;;;;;;;;;;;;;;;343274;28;826;-75
2022/06/01 01:19:02;;;;;;;;;;;;;;;;;;343095;28;981;-75
2022/06/01 01:19:16;;;;;;;;;;;;;;;;;;341085;28;1431;-75
2022/06/01 01:19:27;;;;;;;;;;;;;;;;;;343183;28;929;-75
2022/06/01 01:19:39;;;;;;;;;;;;;;;;;;343179;28;937;-75
2022/06/01 01:19:53;;;;;;;;;;;;;;;;;;343187;28;921;-75
2022/06/01 01:20:04;;;;;;;;;;;;;;;;;;343149;28;867;-75
2022/06/01 01:20:17;;;;;;;;;;;;;;;;;;343255;28;771;-75
2022/06/01 01:20:28;;;;;;;;;;;;;;;;;;343202;28;962;-75
2022/06/01 01:21:02;;;;;;;;;;;;;;;;;;343145;28;910;-75
2022/06/01 01:21:12;;;;;;;;;;;;;;;;;;341678;29;910;-75
2022/06/01 01:21:31;;;;;;;;;;;;;;;;;;341735;28;1101;-75
2022/06/01 01:21:56;;;;;;;;;;;;;;;;;;343140;28;997;-75
2022/06/01 01:22:18;;;;;;;;;;;;;;;;;;343201;28;997;-74
2022/06/01 01:22:31;;;;;;;;;;;;;;;;;;343153;28;895;-75
2022/06/01 01:23:10;;;;;;;;;;;;;;;;;;343183;28;941;-75
2022/06/01 01:23:31;;;;;;;;;;;;;;;;;;341636;29;934;-75
2022/06/01 01:23:48;;;;;;;;;;;;;;;;;;341553;29;816;-75
2022/06/01 01:24:08;;;;;;;;;;;;;;;;;;341734;29;840;-75